Aleksandrovskoe, Russia
Current Conditions -  °F | °C
As of 11:00 PM on Monday 22 Dec 2014 (Local Time) from USNN Reporting Station
Scattered Clouds Scattered Clouds  
Wind Chill: 11°   Ceiling: Unl
Heat Index: 19°   Visibility: 6mi
Dew Point: 16°   Wind: 7mph
Humidity: 86%   Direction: 190°S
Pressure: 29.91"   Gusts: NA
Location:  60.43°N, 77.87°E
Report Text: USNN 221600Z 19003MPS 9999 SCT012 M07/M09 Q1013 NOSIG RMKQFE755 21410337
Loading
Personal Weather Stations






























Interactive Weather Map New forecast layout! Learn more

10-Day Weather Forecast

Advertisements
Track Severe Weather on mobile